Time;durP1;ratioP1;P1;durP2;ratioP2;P2;SDS_P1;SDS_P2;PMS_P1;PMS_P2;Temp;Humidity;BMP_temperature;BMP_pressure;BME280_temperature;BME280_humidity;BME280_pressure;Samples;Min_cycle;Max_cycle;Signal;HPM_P1;HPM_P2
2022/01/25 00:09:20;;;;;;;;;71.75;57.25;;;;;4.48;63.60;102427.47;5074835;28;45719;-43
2022/01/25 00:27:15;;;;;;;;;68.75;55.50;;;;;4.18;63.39;102432.09;5058419;28;45544;-48
2022/01/25 00:32:09;;;;;;;;;66.75;56.50;;;;;4.06;63.48;102438.78;5058160;28;45459;-41
2022/01/25 00:34:34;;;;;;;;;72.25;56.00;;;;;3.97;62.85;102437.72;5058498;28;45829;-41
2022/01/25 00:37:00;;;;;;;;;73.75;57.25;;;;;3.96;63.65;102437.69;5061222;28;45379;-45
2022/01/25 00:39:25;;;;;;;;;66.25;56.00;;;;;3.80;63.63;102449.50;5078541;28;46574;-45
2022/01/25 00:41:51;;;;;;;;;64.00;54.00;;;;;3.80;63.70;102444.28;5078350;27;45434;-49
2022/01/25 00:44:16;;;;;;;;;70.50;55.50;;;;;3.71;63.93;102433.69;5078389;27;45385;-43
2022/01/25 00:46:42;;;;;;;;;65.25;53.00;;;;;3.81;63.99;102452.97;5078468;27;45661;-46
2022/01/25 00:49:08;;;;;;;;;72.00;58.25;;;;;3.78;64.19;102447.72;5078265;28;46304;-45
2022/01/25 00:52:20;;;;;;;;;72.00;52.50;;;;;3.74;64.86;102442.44;5077833;27;45385;-47
2022/01/25 00:56:50;;;;;;;;;65.00;52.25;;;;;3.76;64.65;102443.34;5078355;27;45364;-41
2022/01/25 00:59:20;;;;;;;;;60.75;45.00;;;;;3.68;64.25;102441.41;5078206;27;45428;-45
2022/01/25 01:01:48;;;;;;;;;64.75;52.00;;;;;3.64;64.42;102440.47;5078205;27;45404;-50
2022/01/25 01:04:14;;;;;;;;;68.00;52.00;;;;;3.59;64.86;102431.66;5078255;27;45335;-47
2022/01/25 01:06:42;;;;;;;;;69.00;56.50;;;;;3.57;64.41;102437.69;5078127;27;45382;-46
2022/01/25 01:09:08;;;;;;;;;62.50;49.50;;;;;3.56;64.90;102434.22;5077777;27;45669;-47
2022/01/25 01:11:43;;;;;;;;;57.25;45.50;;;;;3.55;64.40;102435.06;5077825;28;45464;-47
2022/01/25 01:14:23;;;;;;;;;61.75;49.00;;;;;3.57;64.92;102441.16;5078381;27;45499;-44
2022/01/25 01:33:27;;;;;;;;;53.00;42.25;;;;;3.36;65.55;102445.84;5077833;28;45356;-44
2022/01/25 01:43:59;;;;;;;;;57.75;48.25;;;;;3.34;65.68;102448.44;5057288;28;45509;-43
2022/01/25 01:51:43;;;;;;;;;61.50;48.75;;;;;3.27;66.21;102449.13;5077005;28;45420;-43
2022/01/25 01:54:07;;;;;;;;;50.50;46.50;;;;;3.20;66.10;102452.44;5076860;28;45479;-47
2022/01/25 01:56:33;;;;;;;;;58.25;45.00;;;;;3.20;67.00;102447.22;5077969;28;45392;-43
2022/01/25 01:59:03;;;;;;;;;57.75;44.75;;;;;3.24;67.41;102452.53;5077815;27;45520;-43
2022/01/25 02:01:30;;;;;;;;;56.50;48.00;;;;;3.16;67.14;102453.19;5077149;27;45531;-44
2022/01/25 02:03:57;;;;;;;;;54.50;45.75;;;;;3.07;66.96;102449.50;5077143;27;45470;-45
2022/01/25 02:06:23;;;;;;;;;54.75;44.25;;;;;3.26;67.25;102457.78;5076442;27;45593;-42
2022/01/25 02:08:48;;;;;;;;;52.50;45.25;;;;;3.26;66.63;102456.03;5077282;28;45578;-46
2022/01/25 02:11:14;;;;;;;;;59.50;45.75;;;;;3.15;66.02;102459.22;5077077;27;45449;-48
2022/01/25 02:13:42;;;;;;;;;52.50;43.25;;;;;2.97;66.97;102459.63;5077226;27;45418;-45
2022/01/25 02:16:15;;;;;;;;;49.50;44.25;;;;;2.94;66.78;102460.44;5076902;28;45507;-46
2022/01/25 02:24:08;;;;;;;;;55.50;44.25;;;;;2.92;66.58;102458.63;5077007;28;45393;-45
2022/01/25 02:26:33;;;;;;;;;51.00;43.25;;;;;3.02;66.80;102452.84;5076913;27;45372;-45
2022/01/25 02:28:59;;;;;;;;;43.25;42.25;;;;;3.03;65.62;102450.25;5076992;27;45635;-44
2022/01/25 02:31:24;;;;;;;;;42.75;39.75;;;;;2.98;65.77;102456.19;5076794;27;45468;-42
2022/01/25 02:33:49;;;;;;;;;38.25;37.25;;;;;2.97;66.06;102451.84;5076134;27;45436;-43
2022/01/25 02:36:27;;;;;;;;;42.50;41.00;;;;;3.03;66.23;102450.25;5077229;27;45510;-48
2022/01/25 02:38:56;;;;;;;;;43.25;38.50;;;;;3.07;65.66;102462.50;5076739;27;45411;-47
2022/01/25 02:41:25;;;;;;;;;43.25;40.50;;;;;3.06;65.66;102458.16;5076247;27;45655;-44
2022/01/25 02:43:51;;;;;;;;;47.50;43.25;;;;;3.07;66.21;102453.84;5076395;27;45490;-45
2022/01/25 02:46:24;;;;;;;;;38.75;37.25;;;;;3.06;65.40;102455.56;5076991;28;45433;-44
2022/01/25 02:48:54;;;;;;;;;50.25;41.75;;;;;3.03;65.62;102458.06;5076453;27;45441;-43
2022/01/25 02:51:24;;;;;;;;;41.25;39.25;;;;;3.03;65.53;102459.78;5074853;28;47399;-43
2022/01/25 02:53:49;;;;;;;;;47.25;41.00;;;;;2.90;65.54;102457.69;5076461;27;45391;-43
2022/01/25 02:56:16;;;;;;;;;43.50;40.75;;;;;2.98;66.00;102458.78;5076822;27;45489;-41
2022/01/25 02:58:42;;;;;;;;;43.50;39.75;;;;;3.02;65.78;102451.09;5076501;27;45481;-43
2022/01/25 03:01:08;;;;;;;;;50.50;40.50;;;;;3.11;66.11;102458.25;5076319;27;45476;-51
2022/01/25 03:03:33;;;;;;;;;45.00;41.00;;;;;3.14;65.28;102468.72;5076566;27;45390;-48
2022/01/25 03:05:59;;;;;;;;;49.50;43.25;;;;;3.17;65.03;102462.72;5075829;27;45598;-45
2022/01/25 03:08:24;;;;;;;;;45.50;38.75;;;;;3.12;64.67;102449.63;5076308;27;45534;-43
2022/01/25 03:10:49;;;;;;;;;47.25;40.00;;;;;3.15;64.51;102459.22;5076276;27;46206;-41
2022/01/25 03:13:20;;;;;;;;;45.00;40.25;;;;;3.14;64.82;102468.72;5076206;27;45406;-46
2022/01/25 03:18:40;;;;;;;;;48.25;41.75;;;;;3.18;65.27;102464.50;5076158;27;45519;-46
2022/01/25 03:21:17;;;;;;;;;48.25;40.50;;;;;3.18;64.63;102459.31;5075219;28;46027;-45
2022/01/25 03:23:44;;;;;;;;;35.75;33.00;;;;;3.20;65.30;102457.63;5075932;27;45594;-42
2022/01/25 03:26:09;;;;;;;;;44.75;40.00;;;;;3.13;63.74;102442.72;5076205;28;45476;-42
2022/01/25 03:28:35;;;;;;;;;41.25;37.25;;;;;3.08;65.29;102452.97;5075952;27;45530;-44
2022/01/25 03:31:00;;;;;;;;;42.00;40.50;;;;;3.06;64.60;102444.25;5075721;27;45503;-44
2022/01/25 03:33:26;;;;;;;;;39.00;34.50;;;;;3.13;64.78;102440.09;5075988;27;45519;-46
2022/01/25 03:35:52;;;;;;;;;39.50;36.75;;;;;3.19;64.57;102437.66;5075540;28;45443;-47
2022/01/25 03:38:18;;;;;;;;;39.25;37.00;;;;;3.19;64.38;102437.66;5075807;28;45463;-45
2022/01/25 03:40:44;;;;;;;;;41.25;38.00;;;;;3.12;64.36;102422.72;5075488;28;46261;-47
2022/01/25 03:43:10;;;;;;;;;42.75;39.00;;;;;3.19;64.68;102430.72;5075651;27;45445;-45
2022/01/25 03:45:38;;;;;;;;;39.75;37.25;;;;;3.21;64.26;102429.03;5075056;27;45411;-46
2022/01/25 03:50:44;;;;;;;;;44.25;41.75;;;;;3.19;65.02;102425.53;5075077;27;45490;-43
2022/01/25 03:53:11;;;;;;;;;43.50;41.00;;;;;3.16;65.42;102419.38;5075492;27;45372;-46
2022/01/25 03:55:37;;;;;;;;;54.50;44.25;;;;;3.17;65.75;102427.22;5075795;28;45361;-44
2022/01/25 03:58:03;;;;;;;;;46.25;40.25;;;;;3.18;65.37;102423.78;5075573;27;45662;-43
2022/01/25 04:00:29;;;;;;;;;52.50;41.75;;;;;3.13;65.82;102422.78;5075438;27;46226;-48
2022/01/25 04:03:01;;;;;;;;;49.75;44.00;;;;;3.14;66.65;102429.72;5075491;28;45396;-44
2022/01/25 04:08:08;;;;;;;;;60.75;49.00;;;;;2.93;67.84;102436.97;5075724;27;45534;-47
2022/01/25 04:10:33;;;;;;;;;50.75;44.75;;;;;2.82;68.58;102426.31;5075380;28;46435;-50
2022/01/25 04:13:00;;;;;;;;;58.25;46.50;;;;;2.90;67.92;102432.59;5075368;27;45479;-45
2022/01/25 04:15:26;;;;;;;;;57.75;47.50;;;;;2.87;68.35;102436.03;5075580;28;45430;-46
2022/01/25 04:18:01;;;;;;;;;48.50;44.00;;;;;2.81;67.81;102432.34;5075229;27;45491;-45
2022/01/25 04:20:28;;;;;;;;;50.25;45.00;;;;;2.78;67.33;102438.34;5073615;28;46596;-45
2022/01/25 04:25:38;;;;;;;;;49.25;44.00;;;;;2.73;67.59;102411.38;5075575;28;45601;-45
2022/01/25 04:28:03;;;;;;;;;50.50;45.25;;;;;2.94;67.22;102444.84;5075401;28;45630;-43
2022/01/25 04:30:29;;;;;;;;;58.25;45.25;;;;;2.86;67.74;102442.03;5075130;27;45582;-45
2022/01/25 04:33:00;;;;;;;;;52.25;45.00;;;;;2.75;68.23;102440.00;5074768;27;45415;-46
2022/01/25 04:35:43;;;;;;;;;51.50;45.25;;;;;2.77;67.93;102439.22;5075357;27;45421;-47
2022/01/25 04:54:11;;;;;;;;;44.75;41.50;;;;;2.99;67.85;102442.38;5074904;27;45428;-46
2022/01/25 04:57:21;;;;;;;;;56.00;45.50;;;;;3.02;67.81;102451.09;5076474;27;45377;-44
2022/01/25 04:59:48;;;;;;;;;52.25;43.75;;;;;2.99;67.62;102444.97;5074320;28;45351;-45
2022/01/25 05:02:45;;;;;;;;;52.25;46.50;;;;;3.05;67.57;102450.31;5078221;27;45384;-43
2022/01/25 05:05:06;;;;;;;;;56.50;47.25;;;;;3.05;67.46;102442.50;5074680;28;45377;-46
2022/01/25 05:07:47;;;;;;;;;55.50;45.25;;;;;3.06;68.37;102442.56;5078100;27;45442;-48
2022/01/25 05:10:12;;;;;;;;;54.50;46.25;;;;;3.12;67.54;102451.31;5078108;27;45587;-46
2022/01/25 05:15:19;;;;;;;;;50.50;45.25;;;;;3.09;67.39;102455.63;5078150;27;45373;-43
2022/01/25 05:17:47;;;;;;;;;57.00;47.50;;;;;3.13;68.08;102459.19;5078217;27;45368;-46
2022/01/25 05:22:56;;;;;;;;;52.50;44.75;;;;;3.11;68.09;102458.25;5077583;28;45345;-46
2022/01/25 05:25:22;;;;;;;;;57.00;47.00;;;;;3.14;67.67;102458.31;5076422;28;45458;-48
2022/01/25 05:27:47;;;;;;;;;58.75;47.75;;;;;3.06;68.20;102455.56;5078089;27;45302;-46
2022/01/25 05:30:13;;;;;;;;;52.75;43.50;;;;;3.07;67.92;102462.50;5077862;27;45586;-45
2022/01/25 05:32:38;;;;;;;;;57.25;45.50;;;;;3.15;68.19;102456.63;5077276;27;45449;-44
2022/01/25 05:35:04;;;;;;;;;54.00;45.25;;;;;3.14;67.91;102457.44;5077890;27;45385;-48
2022/01/25 05:37:32;;;;;;;;;59.25;48.00;;;;;3.12;67.79;102452.22;5077831;27;45395;-44
2022/01/25 05:40:00;;;;;;;;;55.75;47.50;;;;;3.07;67.87;102448.63;5077952;27;45512;-46
2022/01/25 05:45:37;;;;;;;;;55.00;45.50;;;;;3.22;67.52;102451.59;5077706;27;45524;-46
2022/01/25 05:47:51;;;;;;;;;56.50;49.00;;;;;3.17;67.06;102453.22;5077000;27;45377;-43
2022/01/25 05:50:16;;;;;;;;;57.75;48.50;;;;;3.13;67.80;102459.19;5077547;27;45514;-46
2022/01/25 05:52:42;;;;;;;;;38.75;37.00;;;;;3.20;67.21;102450.69;5077515;27;45525;-46
2022/01/25 05:55:08;;;;;;;;;54.75;46.50;;;;;3.27;67.01;102457.78;5077410;27;45463;-45
2022/01/25 05:57:34;;;;;;;;;62.25;49.25;;;;;3.15;66.31;102428.91;5077135;28;45522;-46
2022/01/25 06:00:00;;;;;;;;;60.75;49.50;;;;;3.29;66.69;102452.66;5077261;28;45610;-44
2022/01/25 06:02:28;;;;;;;;;59.50;49.00;;;;;3.26;66.59;102448.25;5075738;28;47208;-44
2022/01/25 06:04:54;;;;;;;;;66.00;48.00;;;;;3.31;66.71;102456.16;5077140;28;45534;-47
2022/01/25 06:07:19;;;;;;;;;61.50;51.50;;;;;3.32;66.69;102458.78;5077194;27;45385;-45
2022/01/25 06:09:47;;;;;;;;;54.75;45.50;;;;;3.36;66.57;102451.06;5076857;27;45693;-47
2022/01/25 06:12:12;;;;;;;;;54.50;47.25;;;;;3.36;67.10;102451.97;5077129;28;45542;-48
2022/01/25 06:14:38;;;;;;;;;68.00;52.00;;;;;3.30;67.07;102436.19;5077052;27;45587;-44
2022/01/25 06:17:04;;;;;;;;;54.25;46.00;;;;;3.40;67.18;102456.38;5076882;27;45499;-44
2022/01/25 06:19:29;;;;;;;;;64.50;52.75;;;;;3.39;67.48;102453.75;5076790;27;45607;-46
2022/01/25 06:21:54;;;;;;;;;55.50;46.25;;;;;3.42;67.61;102461.63;5076950;27;46583;-47
2022/01/25 06:24:20;;;;;;;;;62.50;48.75;;;;;3.43;67.17;102451.25;5075516;27;45558;-46
2022/01/25 06:26:45;;;;;;;;;60.75;49.25;;;;;3.27;66.61;102423.13;5076638;27;45362;-47
2022/01/25 06:29:11;;;;;;;;;66.25;51.50;;;;;3.33;67.47;102441.47;5077284;27;45431;-45
2022/01/25 06:31:37;;;;;;;;;68.50;54.50;;;;;3.40;67.40;102461.56;5076970;27;45419;-43
2022/01/25 06:34:03;;;;;;;;;55.50;48.00;;;;;3.39;67.67;102465.03;5077302;28;45441;-46
2022/01/25 06:36:28;;;;;;;;;66.25;52.00;;;;;3.44;67.57;102462.53;5077198;27;45483;-45
2022/01/25 06:38:53;;;;;;;;;68.00;52.00;;;;;3.38;67.91;102457.19;5077160;27;45523;-46
2022/01/25 06:41:19;;;;;;;;;62.50;51.00;;;;;3.29;68.25;102457.84;5076582;27;45590;-43
2022/01/25 06:43:45;;;;;;;;;65.75;52.00;;;;;3.32;67.55;102453.59;5076490;27;45435;-49
2022/01/25 06:46:10;;;;;;;;;63.75;53.00;;;;;3.36;67.88;102459.75;5056729;28;45444;-44
2022/01/25 06:48:36;;;;;;;;;69.75;54.50;;;;;3.28;67.69;102454.38;5056643;28;45405;-42
2022/01/25 06:51:01;;;;;;;;;63.25;51.25;;;;;3.36;68.20;102456.25;5058607;28;46500;-43
2022/01/25 06:53:27;;;;;;;;;61.25;49.25;;;;;3.37;67.86;102452.84;5076652;27;45570;-47
2022/01/25 06:55:53;;;;;;;;;66.25;55.25;;;;;3.45;67.42;102449.56;5076445;28;45361;-48
2022/01/25 06:58:18;;;;;;;;;63.50;53.25;;;;;3.47;67.83;102447.88;5076538;27;45520;-47
2022/01/25 07:00:44;;;;;;;;;61.00;48.50;;;;;3.49;67.50;102445.31;5076305;28;46053;-46
2022/01/25 07:03:09;;;;;;;;;65.75;54.75;;;;;3.49;67.49;102443.59;5075617;28;45507;-42
2022/01/25 07:05:35;;;;;;;;;64.00;52.00;;;;;3.29;68.08;102424.91;5075903;27;45398;-42
2022/01/25 07:08:01;;;;;;;;;61.25;48.50;;;;;3.48;67.87;102460.03;5069860;27;45456;-42
2022/01/25 07:10:26;;;;;;;;;67.25;55.75;;;;;3.46;68.09;102450.44;5061490;28;45475;-45
2022/01/25 07:12:52;;;;;;;;;68.25;53.50;;;;;3.49;68.00;102456.63;5076142;28;45421;-44
2022/01/25 07:15:17;;;;;;;;;68.50;54.25;;;;;3.52;68.27;102463.63;5076361;27;45335;-48
2022/01/25 07:17:43;;;;;;;;;65.00;52.25;;;;;3.45;67.22;102462.56;5076197;27;45458;-47
2022/01/25 07:20:10;;;;;;;;;66.25;49.75;;;;;3.47;67.21;102465.22;5074815;27;45521;-45
2022/01/25 07:22:37;;;;;;;;;69.00;56.25;;;;;3.27;68.32;102457.78;5075609;28;45446;-45
2022/01/25 07:25:04;;;;;;;;;64.00;51.00;;;;;3.26;68.89;102469.03;5075808;27;45373;-43
2022/01/25 07:27:29;;;;;;;;;61.75;52.50;;;;;3.31;68.07;102467.44;5062709;27;45643;-44
2022/01/25 07:29:55;;;;;;;;;69.25;55.50;;;;;3.41;67.61;102473.75;5069748;27;45649;-44
2022/01/25 07:32:20;;;;;;;;;58.00;46.25;;;;;3.44;67.94;102468.63;5068416;28;45468;-43
2022/01/25 07:34:45;;;;;;;;;55.25;47.50;;;;;3.51;67.11;102474.84;5074283;27;45470;-45
2022/01/25 07:37:11;;;;;;;;;57.75;48.25;;;;;3.50;68.63;102476.56;5075364;27;45532;-45
2022/01/25 07:39:36;;;;;;;;;64.25;55.00;;;;;3.49;67.86;102474.81;5075195;27;45473;-43
2022/01/25 07:42:02;;;;;;;;;65.50;52.50;;;;;3.51;68.50;102480.91;5073154;28;45500;-44
2022/01/25 07:44:31;;;;;;;;;64.75;51.00;;;;;3.46;68.17;102463.44;5074622;27;45386;-44
2022/01/25 07:46:57;;;;;;;;;61.25;51.00;;;;;3.54;68.07;102485.31;5075536;27;45431;-46
2022/01/25 07:49:27;;;;;;;;;62.00;51.75;;;;;3.50;67.52;102486.09;5074343;28;46184;-44
2022/01/25 07:51:53;;;;;;;;;62.50;53.50;;;;;3.43;68.30;102478.97;5075578;27;45443;-42
2022/01/25 07:54:19;;;;;;;;;68.00;50.00;;;;;3.47;67.81;102488.63;5075458;27;45387;-42
2022/01/25 07:56:44;;;;;;;;;64.25;53.50;;;;;3.42;68.98;102490.25;5075264;27;45657;-42
2022/01/25 07:59:09;;;;;;;;;64.50;49.50;;;;;3.47;68.39;102499.03;5074932;27;46518;-44
2022/01/25 08:01:35;;;;;;;;;54.50;43.25;;;;;3.45;67.83;102503.31;5075253;27;45424;-42
2022/01/25 08:04:00;;;;;;;;;60.75;49.50;;;;;3.37;68.27;102492.72;5075434;27;45464;-41
2022/01/25 08:06:26;;;;;;;;;62.50;48.75;;;;;3.42;68.73;102491.13;5075058;27;45454;-43
2022/01/25 08:08:52;;;;;;;;;66.00;48.00;;;;;3.42;68.64;102490.25;5074958;27;45519;-42
2022/01/25 08:11:18;;;;;;;;;61.75;51.25;;;;;3.47;68.77;102504.25;5075242;27;45510;-43
2022/01/25 08:13:48;;;;;;;;;56.00;47.50;;;;;3.42;68.58;102501.50;5075164;27;45360;-44
2022/01/25 08:16:14;;;;;;;;;56.00;45.00;;;;;3.31;68.42;102488.25;5073987;28;45497;-42
2022/01/25 08:18:39;;;;;;;;;59.00;49.75;;;;;3.38;68.24;102512.66;5075100;27;46327;-46
2022/01/25 08:21:05;;;;;;;;;57.25;48.00;;;;;3.32;68.09;102518.59;5075137;27;45397;-45
2022/01/25 08:23:30;;;;;;;;;61.50;47.50;;;;;3.34;68.19;102521.25;5075198;28;45435;-43
2022/01/25 08:25:55;;;;;;;;;56.00;46.00;;;;;3.31;68.18;102524.66;5075250;27;45633;-43
2022/01/25 08:28:21;;;;;;;;;68.25;51.00;;;;;3.11;68.75;102484.25;5074980;27;46454;-46
2022/01/25 08:30:47;;;;;;;;;58.50;48.50;;;;;3.25;69.29;102515.78;5075068;28;45398;-45
2022/01/25 08:33:12;;;;;;;;;58.50;49.25;;;;;3.24;68.33;102522.72;5078537;27;45501;-45
2022/01/25 08:35:37;;;;;;;;;56.50;46.50;;;;;3.22;68.95;102516.59;5078556;27;45585;-42
2022/01/25 08:38:03;;;;;;;;;57.75;47.75;;;;;3.22;68.64;102515.72;5078415;27;45358;-46
2022/01/25 08:40:30;;;;;;;;;62.25;49.25;;;;;3.28;69.25;102510.69;5078068;28;45315;-44
2022/01/25 08:42:56;;;;;;;;;56.50;49.00;;;;;3.19;69.51;102519.13;5078288;27;45335;-44
2022/01/25 08:45:21;;;;;;;;;57.25;46.50;;;;;3.22;69.00;102526.13;5078503;27;45315;-48
2022/01/25 08:47:47;;;;;;;;;59.00;46.25;;;;;3.24;68.99;102522.72;5078375;28;45915;-43
2022/01/25 08:50:12;;;;;;;;;61.25;48.00;;;;;3.28;69.52;102506.38;5078529;28;45390;-43
2022/01/25 08:52:38;;;;;;;;;55.25;46.50;;;;;3.29;69.64;102508.13;5078291;27;45438;-44
2022/01/25 08:55:06;;;;;;;;;62.75;50.00;;;;;3.23;69.58;102501.91;5078039;27;45514;-47
2022/01/25 08:57:31;;;;;;;;;56.25;46.75;;;;;3.27;69.76;102509.78;5077942;27;47861;-44
2022/01/25 08:59:57;;;;;;;;;59.25;48.75;;;;;3.34;68.82;102518.66;5078268;27;45530;-48
2022/01/25 09:02:22;;;;;;;;;54.25;45.75;;;;;3.35;69.08;102514.31;5078152;27;45599;-49
2022/01/25 09:04:48;;;;;;;;;56.00;46.75;;;;;3.35;69.51;102511.72;5078220;27;45450;-47
2022/01/25 09:07:13;;;;;;;;;58.75;47.50;;;;;3.31;69.13;102514.25;5077910;27;46165;-44
2022/01/25 09:09:40;;;;;;;;;53.50;45.25;;;;;3.30;69.19;102515.09;5077970;27;45492;-42
2022/01/25 09:12:06;;;;;;;;;60.50;49.25;;;;;3.35;69.26;102528.19;5078278;27;45464;-42
2022/01/25 09:14:32;;;;;;;;;63.00;49.25;;;;;3.39;69.05;102517.06;5078184;28;45582;-43
2022/01/25 09:16:57;;;;;;;;;56.75;46.75;;;;;3.38;69.90;102523.06;5077900;27;46415;-48
2022/01/25 09:19:23;;;;;;;;;61.25;49.75;;;;;3.42;69.05;102524.06;5078014;28;45480;-47
2022/01/25 09:21:48;;;;;;;;;60.50;48.75;;;;;3.42;69.23;102521.44;5078109;28;45519;-42
2022/01/25 09:24:14;;;;;;;;;58.25;48.25;;;;;3.48;69.25;102511.19;5077805;27;45600;-47
2022/01/25 09:26:39;;;;;;;;;61.50;48.25;;;;;3.49;68.92;102524.25;5077489;27;45967;-44
2022/01/25 09:29:05;;;;;;;;;62.75;49.25;;;;;3.38;69.19;102524.81;5077620;27;45556;-42
2022/01/25 09:31:31;;;;;;;;;64.50;51.50;;;;;3.26;69.32;102521.06;5077428;27;45326;-48
2022/01/25 09:33:57;;;;;;;;;72.25;54.75;;;;;3.33;70.17;102535.06;5077778;27;45599;-43
2022/01/25 09:36:24;;;;;;;;;65.25;52.75;;;;;3.40;70.02;102537.00;5077264;27;45675;-46
2022/01/25 09:38:51;;;;;;;;;59.75;47.50;;;;;3.48;70.00;102530.28;5077361;27;45423;-45
2022/01/25 09:41:17;;;;;;;;;55.25;46.75;;;;;3.53;69.00;102543.41;5077579;27;45463;-43
2022/01/25 09:43:42;;;;;;;;;55.75;47.00;;;;;3.54;68.73;102539.94;5076318;27;45547;-47
2022/01/25 09:46:08;;;;;;;;;54.75;48.00;;;;;3.57;68.64;102542.63;5077505;27;45446;-43
2022/01/25 09:48:33;;;;;;;;;61.25;48.00;;;;;3.61;69.00;102544.47;5077511;27;45464;-45
2022/01/25 09:50:59;;;;;;;;;69.00;55.25;;;;;3.58;68.60;102543.53;5077511;27;45436;-43
2022/01/25 09:53:25;;;;;;;;;65.00;52.00;;;;;3.64;68.75;102548.88;5077367;27;45585;-46
2022/01/25 09:55:51;;;;;;;;;58.75;46.00;;;;;3.55;69.10;102559.94;5077114;27;45514;-48
2022/01/25 09:58:17;;;;;;;;;58.00;47.00;;;;;3.52;68.53;102544.25;5077147;28;45480;-41
2022/01/25 10:00:45;;;;;;;;;63.75;49.75;;;;;3.60;69.25;102547.94;5077300;27;45471;-42
2022/01/25 10:03:22;;;;;;;;;61.75;52.00;;;;;3.64;69.25;102554.06;5077489;27;45423;-46
2022/01/25 10:05:49;;;;;;;;;73.00;53.75;;;;;3.52;68.72;102552.94;5076930;27;45377;-44
2022/01/25 10:08:15;;;;;;;;;60.75;49.75;;;;;3.59;69.37;102553.06;5077010;27;45463;-46
2022/01/25 10:10:42;;;;;;;;;65.75;53.25;;;;;3.59;68.92;102548.75;5077236;27;45511;-43
2022/01/25 10:13:17;;;;;;;;;61.25;48.75;;;;;3.67;69.59;102552.41;5077170;27;45547;-42
2022/01/25 10:15:44;;;;;;;;;64.00;49.25;;;;;3.66;69.39;102552.41;5075518;28;47206;-45
2022/01/25 10:18:10;;;;;;;;;64.25;47.00;;;;;3.69;68.66;102550.75;5075564;28;45491;-43
2022/01/25 10:20:42;;;;;;;;;57.50;47.50;;;;;3.69;68.36;102548.13;5077152;27;45378;-50
2022/01/25 10:23:12;;;;;;;;;56.50;47.50;;;;;3.79;68.28;102558.75;5077023;27;45408;-45
2022/01/25 10:25:41;;;;;;;;;63.00;48.50;;;;;3.81;68.42;102559.69;5076610;27;45446;-45
2022/01/25 10:28:12;;;;;;;;;58.25;47.25;;;;;3.73;67.99;102564.69;5076862;28;45455;-43
2022/01/25 10:30:53;;;;;;;;;59.50;49.00;;;;;3.73;68.16;102560.41;5076943;28;45354;-47
2022/01/25 10:33:27;;;;;;;;;60.25;46.75;;;;;3.59;69.42;102555.69;5076799;27;45555;-44
2022/01/25 10:35:53;;;;;;;;;63.25;51.75;;;;;3.62;68.65;102559.22;5075349;28;45467;-45
2022/01/25 10:38:26;;;;;;;;;62.00;48.50;;;;;3.59;68.91;102556.56;5076527;27;45383;-43
2022/01/25 10:40:57;;;;;;;;;69.25;52.50;;;;;3.58;68.98;102557.41;5076508;27;45525;-44
2022/01/25 10:43:25;;;;;;;;;54.00;47.75;;;;;3.63;69.26;102560.13;5076644;27;45363;-45
2022/01/25 10:46:27;;;;;;;;;64.00;50.25;;;;;3.72;69.40;102561.22;5076375;27;45446;-45
2022/01/25 10:48:59;;;;;;;;;57.00;46.50;;;;;3.63;69.04;102545.41;5054270;27;45437;-50
2022/01/25 10:51:29;;;;;;;;;63.25;49.75;;;;;3.79;68.52;102574.38;5076404;27;45433;-44
2022/01/25 10:53:59;;;;;;;;;68.75;51.25;;;;;3.77;69.50;102571.75;5076282;27;45419;-46
2022/01/25 10:56:24;;;;;;;;;75.25;57.25;;;;;3.71;68.82;102569.88;5076342;27;45480;-43
2022/01/25 10:58:50;;;;;;;;;67.25;48.25;;;;;3.67;69.02;102560.22;5076248;28;45393;-43
2022/01/25 11:01:32;;;;;;;;;61.50;48.00;;;;;3.76;69.17;102560.47;5075833;27;45360;-42
2022/01/25 11:04:10;;;;;;;;;55.50;48.00;;;;;3.83;68.55;102551.06;5075741;28;45612;-44
2022/01/25 11:06:37;;;;;;;;;63.00;50.75;;;;;3.90;68.30;102555.59;5076005;27;45674;-43
2022/01/25 11:09:05;;;;;;;;;67.50;50.25;;;;;3.81;68.70;102531.06;5075857;28;45372;-43
2022/01/25 11:11:40;;;;;;;;;63.00;45.75;;;;;3.86;68.80;102540.72;5075784;28;45588;-43
2022/01/25 11:16:53;;;;;;;;;58.50;49.00;;;;;3.97;68.35;102543.56;5075568;28;45714;-44
2022/01/25 11:19:20;;;;;;;;;66.25;53.50;;;;;3.97;68.62;102547.06;5075401;27;45620;-42
2022/01/25 11:21:47;;;;;;;;;62.75;50.75;;;;;3.89;68.53;102547.72;5075584;27;45420;-44
2022/01/25 11:24:14;;;;;;;;;66.50;52.50;;;;;3.76;68.73;102541.34;5075803;27;45409;-44
2022/01/25 11:26:44;;;;;;;;;65.00;52.00;;;;;3.73;69.18;102549.09;5075715;28;45507;-41
2022/01/25 11:29:09;;;;;;;;;66.25;53.75;;;;;3.75;69.99;102550.00;5075658;27;45416;-46
2022/01/25 11:31:39;;;;;;;;;66.00;50.25;;;;;3.81;69.52;102547.53;5075609;27;45382;-41
2022/01/25 11:34:12;;;;;;;;;65.25;51.75;;;;;3.91;69.81;102548.66;5075553;27;45488;-44
2022/01/25 11:36:53;;;;;;;;;71.50;54.00;;;;;4.01;68.81;102550.63;5075262;27;45474;-46
2022/01/25 11:39:21;;;;;;;;;59.00;48.75;;;;;3.91;68.38;102540.84;5075215;27;45439;-41
2022/01/25 11:41:47;;;;;;;;;64.25;51.25;;;;;4.02;69.05;102556.72;5074870;27;45483;-45
2022/01/25 11:44:16;;;;;;;;;62.75;49.75;;;;;4.08;68.61;102556.84;5075118;27;45437;-42
2022/01/25 11:46:48;;;;;;;;;61.00;48.50;;;;;4.09;68.94;102546.47;5075117;27;46392;-45
2022/01/25 11:49:19;;;;;;;;;59.25;50.00;;;;;4.12;67.65;102549.16;5075411;27;45447;-45
2022/01/25 11:52:02;;;;;;;;;55.25;47.25;;;;;4.14;68.24;102546.59;5075468;27;45365;-44
2022/01/25 11:54:27;;;;;;;;;60.50;50.50;;;;;4.15;68.11;102549.22;5075250;27;45394;-44
2022/01/25 11:57:08;;;;;;;;;57.00;49.25;;;;;4.22;68.58;102550.25;5074969;27;45373;-47
2022/01/25 11:59:35;;;;;;;;;64.50;48.50;;;;;4.18;67.80;102545.78;5074866;28;45488;-44
2022/01/25 12:02:00;;;;;;;;;67.75;52.25;;;;;4.20;67.64;102542.38;5074743;28;45444;-45
2022/01/25 12:04:29;;;;;;;;;67.00;54.00;;;;;4.18;68.09;102535.38;5074886;27;45469;-42
2022/01/25 12:07:01;;;;;;;;;63.50;52.25;;;;;4.20;68.37;102534.56;5074227;27;45707;-43
2022/01/25 12:09:45;;;;;;;;;61.25;50.00;;;;;4.00;68.60;102522.81;5074859;27;45390;-41
2022/01/25 12:12:13;;;;;;;;;55.00;48.00;;;;;4.03;68.96;102532.41;5074657;27;45537;-41
2022/01/25 12:14:42;;;;;;;;;60.75;49.00;;;;;4.06;69.02;102540.34;5074334;27;45844;-42
2022/01/25 12:17:13;;;;;;;;;63.00;51.25;;;;;4.12;68.93;102540.47;5072993;27;46034;-47
2022/01/25 12:19:50;;;;;;;;;65.00;51.75;;;;;4.13;68.71;102534.41;5071923;28;45485;-44
2022/01/25 12:22:38;;;;;;;;;63.25;50.25;;;;;4.20;68.21;102528.50;5073660;28;45547;-45
2022/01/25 12:25:20;;;;;;;;;69.75;52.50;;;;;4.17;68.38;102526.69;5058147;28;45442;-45
2022/01/25 12:28:03;;;;;;;;;64.00;48.00;;;;;4.12;68.01;102510.09;5072170;28;47632;-46
2022/01/25 12:30:32;;;;;;;;;63.75;51.75;;;;;4.08;67.92;102517.78;5074574;27;45408;-45
2022/01/25 12:33:08;;;;;;;;;63.75;50.25;;;;;4.10;68.31;102514.38;5074703;27;45393;-45
2022/01/25 12:35:38;;;;;;;;;61.75;48.50;;;;;4.18;68.44;102507.59;5073036;28;45430;-45
2022/01/25 12:38:14;;;;;;;;;63.25;52.00;;;;;4.19;68.24;102512.00;5071787;28;45675;-43
2022/01/25 12:40:49;;;;;;;;;60.50;50.50;;;;;4.16;68.54;102513.63;5072727;27;45701;-45
2022/01/25 12:43:29;;;;;;;;;63.50;51.25;;;;;4.09;68.22;102510.03;5069700;28;45526;-42
2022/01/25 12:46:05;;;;;;;;;62.00;50.50;;;;;4.03;68.35;102511.59;5073175;28;45521;-44
2022/01/25 12:48:35;;;;;;;;;69.75;55.00;;;;;4.11;68.82;102510.94;5074206;27;46249;-42
2022/01/25 12:51:04;;;;;;;;;53.25;44.00;;;;;4.10;69.00;102501.34;5074914;27;45476;-44
2022/01/25 12:53:32;;;;;;;;;55.00;48.50;;;;;4.15;68.44;102504.06;5075079;27;45449;-46
2022/01/25 12:56:02;;;;;;;;;69.00;52.00;;;;;4.18;68.27;102502.41;5074680;27;45599;-47
2022/01/25 12:58:30;;;;;;;;;69.50;54.00;;;;;4.21;67.77;102502.47;5073345;28;46155;-46
2022/01/25 13:01:00;;;;;;;;;62.25;51.75;;;;;4.23;67.69;102489.50;5074868;27;45510;-49
2022/01/25 13:03:30;;;;;;;;;62.50;51.50;;;;;4.35;67.68;102496.66;5074783;27;45382;-45